createdAt,value
2023-04-12T00:02:23.906Z,78.33
2023-04-12T00:04:50.401Z,78.26
2023-04-12T00:07:16.625Z,78.29
2023-04-12T00:09:43.051Z,78.20
2023-04-12T00:12:09.712Z,78.21
2023-04-12T00:14:37.361Z,78.09
2023-04-12T00:17:03.779Z,78.02
2023-04-12T00:19:30.274Z,77.96
2023-04-12T00:21:56.668Z,78.06
2023-04-12T00:24:23.036Z,77.97
2023-04-12T00:26:49.467Z,78.11
2023-04-12T00:29:15.883Z,77.81
2023-04-12T00:31:42.295Z,77.89
2023-04-12T00:34:08.723Z,77.89
2023-04-12T00:36:35.114Z,77.83
2023-04-12T00:39:03.890Z,77.82
2023-04-12T00:41:30.312Z,77.81
2023-04-12T00:43:57.061Z,77.70
2023-04-12T00:46:23.138Z,77.62
2023-04-12T00:48:49.518Z,77.70
2023-04-12T00:51:15.949Z,77.80
2023-04-12T00:53:42.349Z,77.99
2023-04-12T00:56:08.748Z,78.26
2023-04-12T00:58:35.091Z,78.42
2023-04-12T01:01:01.573Z,78.40
2023-04-12T01:03:28.200Z,78.63
2023-04-12T01:05:54.232Z,78.99
2023-04-12T01:08:20.604Z,79.06
2023-04-12T01:10:47.026Z,79.23
2023-04-12T01:13:13.420Z,79.35
2023-04-12T01:15:39.828Z,79.42
2023-04-12T01:18:06.292Z,79.55
2023-04-12T01:20:32.702Z,79.78
2023-04-12T01:22:59.109Z,79.86
2023-04-12T01:25:25.493Z,79.84
2023-04-12T01:27:51.909Z,79.90
2023-04-12T01:30:18.328Z,80.11
2023-04-12T01:32:44.765Z,80.20
2023-04-12T01:35:11.119Z,80.23
2023-04-12T01:37:37.510Z,80.31
2023-04-12T01:40:03.889Z,80.37
2023-04-12T01:42:30.287Z,80.44
2023-04-12T01:44:56.703Z,80.54
2023-04-12T01:47:23.152Z,80.65
2023-04-12T01:49:49.505Z,80.94
2023-04-12T01:52:15.922Z,81.32
2023-04-12T01:54:42.337Z,81.54
2023-04-12T01:57:08.803Z,81.71
2023-04-12T01:59:35.178Z,81.51
2023-04-12T02:02:01.621Z,81.79
2023-04-12T02:04:28.041Z,82.05
2023-04-12T02:06:56.833Z,82.05
2023-04-12T02:09:23.209Z,81.83
2023-04-12T02:11:49.676Z,81.89
2023-04-12T02:14:16.028Z,81.85
2023-04-12T02:16:43.570Z,81.77
2023-04-12T02:19:09.964Z,81.82
2023-04-12T02:21:36.372Z,81.96
2023-04-12T02:24:02.795Z,81.86
2023-04-12T02:26:29.147Z,81.74
2023-04-12T02:28:55.525Z,81.52
2023-04-12T02:31:21.955Z,81.48
2023-04-12T02:33:48.341Z,81.63
2023-04-12T02:36:14.771Z,81.70
2023-04-12T02:38:41.281Z,81.94
2023-04-12T02:41:07.659Z,82.27
2023-04-12T02:43:34.068Z,82.23
2023-04-12T02:46:00.498Z,82.32
2023-04-12T02:48:26.854Z,82.33
2023-04-12T02:50:53.272Z,82.09
2023-04-12T02:53:19.677Z,81.98
2023-04-12T02:55:46.073Z,82.13
2023-04-12T02:58:12.472Z,82.35
2023-04-12T03:00:38.840Z,82.47
2023-04-12T03:03:05.396Z,82.70
2023-04-12T03:05:31.623Z,82.92
2023-04-12T03:07:57.999Z,83.11
2023-04-12T03:10:24.389Z,83.80
2023-04-12T03:12:50.763Z,84.39
2023-04-12T03:15:17.129Z,85.07
2023-04-12T03:17:43.594Z,85.44
2023-04-12T03:20:10.121Z,85.65
2023-04-12T03:22:36.331Z,85.69
2023-04-12T03:25:02.805Z,85.74
2023-04-12T03:27:29.164Z,85.82
2023-04-12T03:29:55.524Z,85.83
2023-04-12T03:32:21.953Z,85.91
2023-04-12T03:34:48.360Z,85.89
2023-04-12T03:37:14.817Z,85.68
2023-04-12T03:39:41.181Z,85.42
2023-04-12T03:42:10.173Z,85.09
2023-04-12T03:44:34.178Z,84.94
2023-04-12T03:47:00.660Z,84.88
2023-04-12T03:49:27.006Z,84.59
2023-04-12T03:51:53.372Z,84.23
2023-04-12T03:54:19.788Z,83.74
2023-04-12T03:56:46.774Z,83.41
2023-04-12T03:59:13.125Z,82.97
2023-04-12T04:01:39.554Z,82.85
2023-04-12T04:04:05.967Z,82.48
2023-04-12T04:06:32.417Z,82.37
2023-04-12T04:08:58.775Z,82.33
2023-04-12T04:11:25.150Z,82.17
2023-04-12T04:13:51.553Z,82.34
2023-04-12T04:16:18.237Z,82.40
2023-04-12T04:18:44.552Z,82.34
2023-04-12T04:21:10.938Z,82.38
2023-04-12T04:23:37.312Z,82.52
2023-04-12T04:26:03.899Z,82.41
2023-04-12T04:28:30.304Z,82.41
2023-04-12T04:30:56.713Z,82.26
2023-04-12T04:33:23.186Z,82.02
2023-04-12T04:35:49.651Z,81.71
2023-04-12T04:38:16.296Z,81.76
2023-04-12T04:40:42.742Z,81.34
2023-04-12T04:43:09.157Z,81.43
2023-04-12T04:45:35.726Z,81.55
2023-04-12T04:48:02.099Z,81.39
2023-04-12T04:50:28.332Z,81.19
2023-04-12T04:52:54.735Z,81.02
2023-04-12T04:55:21.182Z,80.60
2023-04-12T04:57:47.666Z,80.28
2023-04-12T05:00:14.059Z,79.84
2023-04-12T05:02:40.618Z,79.30
2023-04-12T05:05:06.907Z,79.32
2023-04-12T05:07:33.483Z,79.21
2023-04-12T05:09:59.896Z,78.92
2023-04-12T05:12:26.274Z,78.72
2023-04-12T05:14:52.718Z,78.25
2023-04-12T05:17:19.129Z,78.14
2023-04-12T05:19:45.547Z,77.91
2023-04-12T05:22:11.912Z,78.01
2023-04-12T05:24:38.299Z,77.90
2023-04-12T05:27:04.700Z,77.33
2023-04-12T05:29:33.719Z,77.03
2023-04-12T05:32:00.104Z,76.37
2023-04-12T05:34:26.831Z,76.03
2023-04-12T05:36:53.242Z,75.39
2023-04-12T05:39:20.922Z,75.18
2023-04-12T05:41:47.216Z,75.06
2023-04-12T05:44:13.623Z,75.28
2023-04-12T05:46:40.065Z,75.30
2023-04-12T05:49:06.493Z,74.77
2023-04-12T05:51:40.918Z,73.83
2023-04-12T05:53:59.427Z,73.77
2023-04-12T05:56:25.816Z,73.67
2023-04-12T05:58:52.190Z,72.58
2023-04-12T06:01:18.646Z,72.56
2023-04-12T06:03:45.367Z,71.76
2023-04-12T06:06:11.652Z,71.63
2023-04-12T06:08:38.050Z,71.69
2023-04-12T06:11:04.519Z,71.45
2023-04-12T06:13:30.880Z,71.45
2023-04-12T06:15:57.608Z,71.69
2023-04-12T06:18:24.035Z,71.82
2023-04-12T06:20:50.464Z,71.69
2023-04-12T06:23:17.270Z,71.83
2023-04-12T06:25:46.078Z,71.74
2023-04-12T06:28:12.542Z,72.12
2023-04-12T06:30:38.918Z,72.97
2023-04-12T06:33:05.320Z,73.81
2023-04-12T06:35:31.733Z,74.84
2023-04-12T06:37:58.069Z,74.24
2023-04-12T06:40:24.440Z,74.40
2023-04-12T06:42:50.833Z,74.32
2023-04-12T06:45:19.392Z,74.20
2023-04-12T06:47:45.811Z,73.64
2023-04-12T06:50:12.216Z,73.53
2023-04-12T06:52:38.681Z,71.70
2023-04-12T06:55:05.079Z,71.23
2023-04-12T06:57:31.564Z,70.66
2023-04-12T06:59:57.994Z,70.14
2023-04-12T07:02:24.525Z,69.54
2023-04-12T07:04:50.828Z,68.93
2023-04-12T07:07:17.243Z,66.09
2023-04-12T07:09:43.605Z,62.41
2023-04-12T07:12:10.033Z,60.24
2023-04-12T07:14:36.395Z,58.44
2023-04-12T07:17:04.009Z,55.88
2023-04-12T07:19:29.202Z,53.55
2023-04-12T07:21:55.571Z,53.09
2023-04-12T07:24:21.927Z,53.46
2023-04-12T07:26:48.363Z,52.51
2023-04-12T07:29:14.894Z,53.40
2023-04-12T07:31:41.299Z,55.10
2023-04-12T07:34:07.909Z,55.97
2023-04-12T07:36:34.419Z,57.57
2023-04-12T07:39:00.864Z,57.55
2023-04-12T07:41:27.157Z,58.30
2023-04-12T07:43:53.558Z,59.15
2023-04-12T07:46:20.266Z,58.30
2023-04-12T07:48:46.593Z,57.87
2023-04-12T07:51:13.013Z,53.69
2023-04-12T07:53:39.478Z,50.69
2023-04-12T07:56:05.891Z,50.83
2023-04-12T07:58:32.253Z,50.58
2023-04-12T08:01:00.954Z,49.38
2023-04-12T08:03:25.117Z,50.21
2023-04-12T08:05:51.450Z,50.68
2023-04-12T08:08:17.797Z,51.93
2023-04-12T08:10:44.296Z,52.06
2023-04-12T08:13:10.671Z,53.08
2023-04-12T08:15:37.062Z,54.05
2023-04-12T08:18:03.509Z,53.26
2023-04-12T08:20:29.894Z,53.38
2023-04-12T08:22:56.271Z,49.88
2023-04-12T08:25:22.904Z,47.33
2023-04-12T08:27:49.342Z,45.01
2023-04-12T08:30:15.675Z,43.61
2023-04-12T08:32:42.074Z,42.45
2023-04-12T08:35:08.440Z,42.57
2023-04-12T08:37:34.864Z,41.80
2023-04-12T08:40:01.232Z,40.16
2023-04-12T08:42:27.625Z,42.23
2023-04-12T08:44:54.047Z,44.48
2023-04-12T08:47:20.491Z,43.96
2023-04-12T08:49:46.840Z,42.29
2023-04-12T08:52:13.500Z,41.46
2023-04-12T08:54:40.129Z,39.86
2023-04-12T08:57:06.554Z,37.90
2023-04-12T08:59:32.936Z,37.69
2023-04-12T09:01:59.445Z,37.59
2023-04-12T09:04:25.859Z,38.43
2023-04-12T09:06:52.110Z,36.39
2023-04-12T09:09:18.469Z,36.93
2023-04-12T09:11:45.208Z,36.47
2023-04-12T09:14:11.584Z,36.94
2023-04-12T09:16:38.028Z,36.02
2023-04-12T09:19:04.615Z,36.07
2023-04-12T09:21:31.025Z,35.47
2023-04-12T09:23:57.577Z,35.22
2023-04-12T09:26:24.028Z,34.90
2023-04-12T09:28:50.405Z,34.55
2023-04-12T09:31:16.841Z,35.49
2023-04-12T09:33:43.218Z,35.01
2023-04-12T09:36:09.659Z,33.53
2023-04-12T09:38:35.973Z,34.38
2023-04-12T09:41:02.345Z,34.30
2023-04-12T09:43:28.715Z,33.70
2023-04-12T09:45:55.204Z,33.26
2023-04-12T09:48:21.552Z,32.80
2023-04-12T09:50:47.925Z,32.77
2023-04-12T09:53:14.349Z,31.94
2023-04-12T09:55:40.734Z,33.39
2023-04-12T09:58:07.170Z,35.09
2023-04-12T10:00:34.591Z,36.50
2023-04-12T10:03:00.894Z,36.08
2023-04-12T10:05:27.918Z,33.59
2023-04-12T10:07:53.541Z,33.61
2023-04-12T10:10:20.101Z,32.86
2023-04-12T10:12:46.387Z,32.08
2023-04-12T10:15:12.801Z,30.76
2023-04-12T10:17:39.418Z,30.23
2023-04-12T10:20:05.806Z,31.00
2023-04-12T10:22:32.153Z,31.87
2023-04-12T10:24:58.584Z,32.56
2023-04-12T10:27:25.021Z,31.66
2023-04-12T10:29:51.413Z,31.33
2023-04-12T10:32:17.812Z,30.11
2023-04-12T10:34:44.204Z,28.12
2023-04-12T10:37:10.645Z,28.51
2023-04-12T10:39:37.046Z,28.72
2023-04-12T10:42:03.436Z,29.32
2023-04-12T10:44:29.857Z,27.88
2023-04-12T10:46:56.266Z,28.34
2023-04-12T10:49:22.649Z,28.44
2023-04-12T10:51:49.021Z,28.16
2023-04-12T10:54:15.442Z,28.19
2023-04-12T10:56:41.896Z,26.92
2023-04-12T10:59:08.294Z,26.91
2023-04-12T11:01:36.043Z,27.38
2023-04-12T11:04:01.256Z,27.31
2023-04-12T11:06:28.016Z,27.35
2023-04-12T11:08:53.851Z,26.92
2023-04-12T11:11:20.508Z,27.44
2023-04-12T11:13:46.924Z,27.32
2023-04-12T11:16:13.615Z,27.62
2023-04-12T11:18:40.087Z,28.17
2023-04-12T11:21:06.530Z,28.27
2023-04-12T11:23:32.938Z,27.65
2023-04-12T11:25:59.296Z,27.74
2023-04-12T11:28:29.779Z,28.37
2023-04-12T11:30:52.142Z,28.09
2023-04-12T11:33:18.519Z,27.84
2023-04-12T11:35:44.978Z,27.45
2023-04-12T11:38:11.397Z,29.02
2023-04-12T11:40:38.062Z,28.83
2023-04-12T11:43:04.482Z,28.49
2023-04-12T11:45:31.111Z,28.38
2023-04-12T11:47:57.501Z,29.13
2023-04-12T11:50:24.051Z,27.87
2023-04-12T11:52:50.470Z,27.95
2023-04-12T11:55:17.022Z,28.49
2023-04-12T11:57:43.439Z,27.99
2023-04-12T12:00:09.873Z,29.31
2023-04-12T12:02:41.139Z,29.16
2023-04-12T12:05:03.172Z,29.30
2023-04-12T12:07:29.765Z,28.27
2023-04-12T12:09:55.619Z,28.58
2023-04-12T12:12:22.055Z,29.61
2023-04-12T12:14:48.455Z,29.25
2023-04-12T12:17:15.241Z,28.32
2023-04-12T12:19:41.692Z,28.98
2023-04-12T12:22:08.071Z,28.31
2023-04-12T12:24:36.305Z,28.56
2023-04-12T12:27:01.146Z,28.76
2023-04-12T12:29:27.561Z,28.79
2023-04-12T12:31:54.017Z,29.64
2023-04-12T12:34:20.358Z,29.31
2023-04-12T12:36:47.038Z,28.89
2023-04-12T12:39:13.666Z,28.49
2023-04-12T12:41:40.121Z,28.90
2023-04-12T12:44:06.500Z,29.23
2023-04-12T12:46:48.728Z,29.36
2023-04-12T12:48:59.493Z,29.05
2023-04-12T12:51:25.921Z,29.37
2023-04-12T12:53:52.288Z,29.55
2023-04-12T12:56:18.728Z,29.81
2023-04-12T12:58:45.166Z,30.12
2023-04-12T13:01:11.551Z,30.01
2023-04-12T13:03:38.063Z,30.62
2023-04-12T13:06:04.393Z,31.09
2023-04-12T13:08:30.794Z,31.07
2023-04-12T13:10:57.211Z,31.46
2023-04-12T13:13:23.664Z,31.22
2023-04-12T13:15:50.061Z,31.45
2023-04-12T13:18:16.425Z,31.19
2023-04-12T13:20:44.053Z,31.72
2023-04-12T13:23:10.494Z,32.05
2023-04-12T13:25:36.902Z,32.06
2023-04-12T13:28:03.362Z,31.98
2023-04-12T13:30:29.791Z,32.47
2023-04-12T13:32:56.323Z,32.46
2023-04-12T13:35:22.656Z,32.61
2023-04-12T13:37:49.038Z,32.18
2023-04-12T13:40:15.435Z,31.59
2023-04-12T13:42:42.094Z,32.19
2023-04-12T13:45:08.464Z,31.93
2023-04-12T13:47:35.040Z,32.74
2023-04-12T13:50:01.481Z,32.57
2023-04-12T13:52:27.915Z,33.08
2023-04-12T13:54:54.329Z,33.01
2023-04-12T13:57:20.715Z,32.14
2023-04-12T13:59:47.147Z,32.54
2023-04-12T14:02:13.585Z,32.96
2023-04-12T14:04:40.007Z,33.19
2023-04-12T14:07:06.335Z,32.19
2023-04-12T14:09:32.732Z,32.19
2023-04-12T14:11:59.206Z,32.39
2023-04-12T14:14:25.595Z,32.32
2023-04-12T14:16:52.101Z,32.28
2023-04-12T14:19:18.368Z,32.79
2023-04-12T14:21:44.910Z,32.77
2023-04-12T14:24:13.683Z,32.57
2023-04-12T14:26:43.760Z,32.48
2023-04-12T14:29:10.658Z,32.79
2023-04-12T14:31:38.101Z,32.73
2023-04-12T14:34:04.461Z,32.85
2023-04-12T14:36:33.500Z,33.07
2023-04-12T14:38:59.852Z,33.28
2023-04-12T14:41:26.231Z,33.25
2023-04-12T14:43:52.604Z,33.65
2023-04-12T14:46:19.132Z,33.70
2023-04-12T14:48:45.392Z,33.61
2023-04-12T14:51:11.812Z,33.96
2023-04-12T14:53:38.245Z,33.95
2023-04-12T14:56:04.936Z,33.53
2023-04-12T14:58:31.356Z,33.40
2023-04-12T15:00:57.780Z,33.85
2023-04-12T15:03:25.754Z,33.71
2023-04-12T15:05:52.042Z,33.96
2023-04-12T15:08:18.461Z,34.17
2023-04-12T15:10:44.823Z,34.18
2023-04-12T15:13:11.308Z,34.70
2023-04-12T15:15:37.634Z,34.60
2023-04-12T15:18:04.034Z,35.07
2023-04-12T15:20:30.432Z,34.62
2023-04-12T15:22:56.847Z,34.54
2023-04-12T15:25:23.425Z,34.46
2023-04-12T15:27:49.806Z,34.51
2023-04-12T15:30:16.224Z,34.55
2023-04-12T15:32:43.634Z,34.71
2023-04-12T15:35:25.420Z,34.76
2023-04-12T15:37:36.449Z,34.77
2023-04-12T15:40:02.736Z,34.65
2023-04-12T15:42:29.170Z,34.86
2023-04-12T15:44:56.633Z,34.58
2023-04-12T15:47:23.078Z,34.52
2023-04-12T15:49:49.469Z,34.68
2023-04-12T15:52:15.871Z,34.68
2023-04-12T15:54:44.047Z,34.96
2023-04-12T15:57:08.737Z,35.40
2023-04-12T15:59:35.113Z,35.80
2023-04-12T16:02:01.635Z,35.93
2023-04-12T16:04:28.122Z,36.29
2023-04-12T16:06:54.411Z,36.50
2023-04-12T16:09:20.880Z,36.67
2023-04-12T16:11:47.239Z,36.29
2023-04-12T16:14:13.733Z,36.23
2023-04-12T16:16:40.437Z,36.26
2023-04-12T16:19:06.502Z,36.14
2023-04-12T16:21:33.313Z,36.43
2023-04-12T16:23:59.722Z,37.06
2023-04-12T16:26:28.299Z,36.83
2023-04-12T16:28:54.794Z,37.20
2023-04-12T16:31:21.324Z,37.33
2023-04-12T16:33:47.617Z,37.53
2023-04-12T16:36:14.253Z,37.72
2023-04-12T16:38:40.615Z,38.12
2023-04-12T16:41:06.996Z,37.99
2023-04-12T16:43:33.470Z,38.16
2023-04-12T16:45:59.886Z,38.07
2023-04-12T16:48:26.257Z,38.26
2023-04-12T16:50:52.661Z,38.38
2023-04-12T16:53:19.079Z,38.53
2023-04-12T16:55:45.511Z,38.52
2023-04-12T16:58:11.946Z,38.67
2023-04-12T17:00:38.499Z,38.96
2023-04-12T17:03:05.067Z,39.21
2023-04-12T17:05:31.380Z,39.29
2023-04-12T17:07:57.745Z,39.68
2023-04-12T17:10:24.690Z,39.87
2023-04-12T17:12:50.963Z,40.02
2023-04-12T17:15:17.463Z,40.44
2023-04-12T17:17:43.939Z,40.62
2023-04-12T17:20:10.296Z,40.84
2023-04-12T17:22:36.934Z,40.92
2023-04-12T17:25:03.323Z,41.10
2023-04-12T17:27:30.030Z,41.20
2023-04-12T17:29:56.457Z,41.45
2023-04-12T17:32:23.175Z,41.51
2023-04-12T17:34:49.545Z,41.58
2023-04-12T17:37:15.917Z,41.80
2023-04-12T17:39:42.337Z,42.01
2023-04-12T17:42:08.910Z,42.14
2023-04-12T17:44:35.382Z,42.18
2023-04-12T17:47:01.798Z,42.31
2023-04-12T17:49:28.211Z,42.50
2023-04-12T17:51:54.968Z,42.73
2023-04-12T17:54:21.736Z,42.60
2023-04-12T17:56:48.397Z,42.80
2023-04-12T17:59:14.778Z,43.09
2023-04-12T18:01:41.328Z,43.03
2023-04-12T18:04:07.940Z,43.10
2023-04-12T18:06:34.117Z,43.37
2023-04-12T18:09:00.496Z,43.48
2023-04-12T18:11:26.923Z,43.43
2023-04-12T18:13:53.296Z,43.70
2023-04-12T18:16:19.776Z,43.99
2023-04-12T18:18:46.189Z,44.13
2023-04-12T18:21:12.541Z,44.35
2023-04-12T18:23:38.963Z,44.53
2023-04-12T18:26:05.422Z,44.39
2023-04-12T18:28:31.992Z,44.18
2023-04-12T18:30:58.383Z,44.39
2023-04-12T18:33:27.876Z,44.38
2023-04-12T18:35:54.258Z,44.47
2023-04-12T18:38:20.870Z,44.63
2023-04-12T18:40:47.317Z,44.54
2023-04-12T18:43:13.838Z,44.72
2023-04-12T18:45:40.209Z,44.64
2023-04-12T18:48:06.718Z,44.82
2023-04-12T18:50:33.084Z,44.79
2023-04-12T18:52:59.497Z,44.99
2023-04-12T18:55:25.970Z,45.02
2023-04-12T18:57:52.417Z,45.04
2023-04-12T19:00:18.787Z,45.10
2023-04-12T19:02:45.297Z,44.91
2023-04-12T19:05:11.660Z,44.69
2023-04-12T19:07:38.056Z,44.85
2023-04-12T19:10:04.428Z,44.82
2023-04-12T19:12:30.834Z,45.07
2023-04-12T19:14:57.322Z,45.17
2023-04-12T19:17:23.791Z,45.18
2023-04-12T19:19:50.084Z,44.83
2023-04-12T19:22:16.535Z,44.80
2023-04-12T19:24:45.054Z,44.85
2023-04-12T19:27:11.439Z,44.98
2023-04-12T19:29:39.051Z,44.98
2023-04-12T19:32:06.094Z,44.87
2023-04-12T19:34:32.416Z,44.96
2023-04-12T19:36:58.850Z,45.05
2023-04-12T19:39:25.200Z,45.08
2023-04-12T19:41:51.686Z,45.01
2023-04-12T19:44:18.109Z,45.06
2023-04-12T19:46:44.447Z,45.16
2023-04-12T19:49:10.823Z,45.29
2023-04-12T19:51:37.289Z,45.69
2023-04-12T19:54:03.784Z,45.94
2023-04-12T19:56:30.148Z,46.03
2023-04-12T19:58:56.743Z,46.17
2023-04-12T20:01:23.052Z,46.20
2023-04-12T20:03:50.091Z,46.19
2023-04-12T20:06:16.458Z,46.26
2023-04-12T20:08:42.874Z,46.32
2023-04-12T20:11:09.293Z,46.38
2023-04-12T20:13:36.840Z,46.48
2023-04-12T20:16:03.219Z,46.11
2023-04-12T20:18:29.691Z,46.23
2023-04-12T20:20:58.239Z,46.44
2023-04-12T20:23:24.617Z,46.34
2023-04-12T20:25:50.991Z,46.35
2023-04-12T20:28:17.472Z,46.49
2023-04-12T20:30:46.300Z,46.62
2023-04-12T20:33:12.780Z,46.87
2023-04-12T20:35:39.089Z,46.96
2023-04-12T20:38:05.467Z,46.99
2023-04-12T20:40:31.883Z,47.02
2023-04-12T20:42:58.304Z,47.01
2023-04-12T20:45:24.702Z,47.25
2023-04-12T20:47:51.221Z,47.15
2023-04-12T20:50:17.538Z,47.08
2023-04-12T20:52:43.955Z,47.22
2023-04-12T20:55:10.853Z,47.24
2023-04-12T20:57:37.254Z,47.22
2023-04-12T21:00:03.618Z,47.14
2023-04-12T21:02:30.172Z,47.24
2023-04-12T21:04:58.165Z,47.28
2023-04-12T21:07:23.907Z,47.33
2023-04-12T21:09:50.281Z,47.22
2023-04-12T21:12:16.669Z,47.37
2023-04-12T21:14:43.046Z,47.48
2023-04-12T21:17:09.454Z,47.63
2023-04-12T21:19:35.833Z,47.58
2023-04-12T21:22:03.409Z,47.42
2023-04-12T21:24:31.133Z,47.62
2023-04-12T21:26:57.500Z,47.62
2023-04-12T21:29:23.870Z,47.70
2023-04-12T21:31:50.296Z,47.80
2023-04-12T21:34:16.633Z,47.58
2023-04-12T21:36:43.021Z,47.74
2023-04-12T21:39:09.388Z,47.70
2023-04-12T21:41:35.769Z,47.97
2023-04-12T21:44:02.147Z,47.96
2023-04-12T21:46:28.673Z,48.04
2023-04-12T21:48:54.948Z,48.00
2023-04-12T21:51:21.326Z,47.96
2023-04-12T21:53:47.702Z,47.91
2023-04-12T21:56:14.082Z,47.98
2023-04-12T21:58:40.488Z,48.52
2023-04-12T22:01:06.901Z,49.46
2023-04-12T22:03:35.694Z,50.86
2023-04-12T22:06:04.638Z,51.98
2023-04-12T22:08:28.437Z,53.05
2023-04-12T22:10:54.821Z,54.22
2023-04-12T22:13:21.224Z,55.12
2023-04-12T22:15:47.642Z,56.03
2023-04-12T22:18:14.002Z,56.32
2023-04-12T22:20:40.375Z,56.56
2023-04-12T22:23:06.770Z,57.00
2023-04-12T22:25:33.160Z,58.13
2023-04-12T22:27:59.544Z,59.23
2023-04-12T22:30:25.967Z,60.50
2023-04-12T22:32:52.351Z,61.21
2023-04-12T22:35:18.704Z,61.22
2023-04-12T22:37:45.079Z,61.35
2023-04-12T22:40:11.544Z,61.45
2023-04-12T22:42:38.109Z,61.53
2023-04-12T22:45:04.495Z,62.13
2023-04-12T22:47:30.878Z,62.46
2023-04-12T22:49:57.261Z,62.23
2023-04-12T22:52:23.621Z,62.18
2023-04-12T22:54:50.012Z,62.54
2023-04-12T22:57:17.227Z,63.20
2023-04-12T22:59:43.810Z,63.60
2023-04-12T23:02:10.271Z,64.00
2023-04-12T23:04:36.606Z,64.11
2023-04-12T23:07:03.016Z,65.01
2023-04-12T23:09:29.433Z,64.79
2023-04-12T23:11:55.817Z,64.76
2023-04-12T23:14:22.383Z,64.76
2023-04-12T23:16:48.726Z,64.61
2023-04-12T23:19:15.251Z,64.86
2023-04-12T23:21:41.690Z,65.08
2023-04-12T23:24:08.138Z,65.10
2023-04-12T23:26:34.564Z,64.31
2023-04-12T23:29:00.899Z,64.57
2023-04-12T23:31:27.382Z,64.80
2023-04-12T23:33:53.764Z,65.01
2023-04-12T23:36:20.130Z,64.92
2023-04-12T23:38:46.604Z,65.15
2023-04-12T23:41:13.005Z,65.12
2023-04-12T23:43:39.373Z,65.41
2023-04-12T23:46:05.842Z,65.08
2023-04-12T23:48:36.842Z,65.00
2023-04-12T23:51:03.269Z,65.24
2023-04-12T23:53:29.806Z,65.26
2023-04-12T23:55:56.201Z,65.38
2023-04-12T23:58:22.563Z,65.21
